createdAt,value
2022-12-26T00:00:57.699Z,20.96
2022-12-26T00:02:02.782Z,21.32
2022-12-26T00:03:06.097Z,21.20
2022-12-26T00:04:51.273Z,20.83
2022-12-26T00:05:30.166Z,21.03
2022-12-26T00:06:32.636Z,20.80
2022-12-26T00:07:34.512Z,21.36
2022-12-26T00:08:36.307Z,21.33
2022-12-26T00:09:38.233Z,21.39
2022-12-26T00:10:40.543Z,21.36
2022-12-26T00:11:42.398Z,21.51
2022-12-26T00:12:47.617Z,21.34
2022-12-26T00:13:58.295Z,21.20
2022-12-26T00:15:00.102Z,21.00
2022-12-26T00:16:07.496Z,21.64
2022-12-26T00:17:09.407Z,21.53
2022-12-26T00:18:11.350Z,21.66
2022-12-26T00:19:13.421Z,21.28
2022-12-26T00:20:15.319Z,21.50
2022-12-26T00:21:18.230Z,21.18
2022-12-26T00:22:20.131Z,21.35
2022-12-26T00:23:21.962Z,21.51
2022-12-26T00:24:23.786Z,21.44
2022-12-26T00:25:25.714Z,21.81
2022-12-26T00:26:30.321Z,21.32
2022-12-26T00:27:33.139Z,21.89
2022-12-26T00:28:35.903Z,21.35
2022-12-26T00:29:37.743Z,21.75
2022-12-26T00:30:39.524Z,21.90
2022-12-26T00:31:41.426Z,21.73
2022-12-26T00:32:43.417Z,21.55
2022-12-26T00:33:45.850Z,22.03
2022-12-26T00:34:47.833Z,21.85
2022-12-26T00:35:49.660Z,21.51
2022-12-26T00:36:51.498Z,21.89
2022-12-26T00:37:53.285Z,21.64
2022-12-26T00:38:57.170Z,21.29
2022-12-26T00:39:59.012Z,21.65
2022-12-26T00:41:01.223Z,21.74
2022-12-26T00:42:03.021Z,21.87
2022-12-26T00:43:04.835Z,21.48
2022-12-26T00:44:06.721Z,21.76
2022-12-26T00:45:08.864Z,21.84
2022-12-26T00:46:11.305Z,21.82
2022-12-26T00:47:13.198Z,21.48
2022-12-26T00:48:15.098Z,21.78
2022-12-26T00:49:16.906Z,21.36
2022-12-26T00:50:18.711Z,21.64
2022-12-26T00:51:20.748Z,21.85
2022-12-26T00:52:22.646Z,21.58
2022-12-26T00:53:26.175Z,21.85
2022-12-26T00:54:28.204Z,21.80
2022-12-26T00:55:30.085Z,21.70
2022-12-26T00:56:31.887Z,21.65
2022-12-26T00:57:33.717Z,21.71
2022-12-26T00:58:36.046Z,21.99
2022-12-26T00:59:37.833Z,22.04
2022-12-26T01:00:40.286Z,21.92
2022-12-26T01:01:42.240Z,21.98
2022-12-26T01:02:44.473Z,22.14
2022-12-26T01:03:47.562Z,21.67
2022-12-26T01:04:49.391Z,21.95
2022-12-26T01:05:51.926Z,21.87
2022-12-26T01:06:54.024Z,21.71
2022-12-26T01:08:22.722Z,21.98
2022-12-26T01:09:18.007Z,21.81
2022-12-26T01:10:20.272Z,22.03
2022-12-26T01:11:40.508Z,21.98
2022-12-26T01:12:42.838Z,21.69
2022-12-26T01:13:44.924Z,22.05
2022-12-26T01:14:47.134Z,22.18
2022-12-26T01:15:51.056Z,22.16
2022-12-26T01:16:52.972Z,22.20
2022-12-26T01:17:55.162Z,21.97
2022-12-26T01:18:56.957Z,22.26
2022-12-26T01:19:58.838Z,22.26
2022-12-26T01:21:11.109Z,21.82
2022-12-26T01:22:12.982Z,22.37
2022-12-26T01:23:15.887Z,22.14
2022-12-26T01:24:17.707Z,22.40
2022-12-26T01:25:19.588Z,22.01
2022-12-26T01:26:21.588Z,22.13
2022-12-26T01:27:25.696Z,22.33
2022-12-26T01:28:27.571Z,22.03
2022-12-26T01:29:29.416Z,22.37
2022-12-26T01:30:31.280Z,22.37
2022-12-26T01:31:33.361Z,22.02
2022-12-26T01:32:35.212Z,21.92
2022-12-26T01:33:37.108Z,22.19
2022-12-26T01:34:39.022Z,22.54
2022-12-26T01:35:50.301Z,22.38
2022-12-26T01:36:53.386Z,22.26
2022-12-26T01:37:56.547Z,22.51
2022-12-26T01:38:58.563Z,22.60
2022-12-26T01:40:00.456Z,22.25
2022-12-26T01:41:17.868Z,22.65
2022-12-26T01:42:24.786Z,22.26
2022-12-26T01:43:26.618Z,22.41
2022-12-26T01:45:22.809Z,22.29
2022-12-26T01:46:27.566Z,22.19
2022-12-26T01:47:51.576Z,22.46
2022-12-26T01:48:55.077Z,22.43
2022-12-26T01:49:56.951Z,22.67
2022-12-26T01:51:05.941Z,22.48
2022-12-26T01:52:12.693Z,22.72
2022-12-26T01:53:36.703Z,22.41
2022-12-26T01:54:43.811Z,22.83
2022-12-26T01:55:54.560Z,22.62
2022-12-26T01:56:57.201Z,22.37
2022-12-26T01:58:07.148Z,22.79
2022-12-26T01:59:15.046Z,22.81
2022-12-26T02:00:17.214Z,22.72
2022-12-26T02:01:20.677Z,22.79
2022-12-26T02:02:27.255Z,22.53
2022-12-26T02:03:47.491Z,23.03
2022-12-26T02:05:10.509Z,22.58
2022-12-26T02:06:14.489Z,22.63
2022-12-26T02:07:16.622Z,22.88
2022-12-26T02:08:24.328Z,22.88
2022-12-26T02:09:26.569Z,22.68
2022-12-26T02:10:31.756Z,23.20
2022-12-26T02:11:45.240Z,23.02
2022-12-26T02:12:48.531Z,22.60
2022-12-26T02:13:50.568Z,22.70
2022-12-26T02:14:52.376Z,22.99
2022-12-26T02:15:54.295Z,23.06
2022-12-26T02:16:56.449Z,22.70
2022-12-26T02:17:58.421Z,22.98
2022-12-26T02:19:00.245Z,22.95
2022-12-26T02:20:16.240Z,23.37
2022-12-26T02:21:18.032Z,22.97
2022-12-26T02:22:28.652Z,23.49
2022-12-26T02:23:48.450Z,22.95
2022-12-26T02:25:05.378Z,23.21
2022-12-26T02:26:07.156Z,22.52
2022-12-26T02:27:31.840Z,22.95
2022-12-26T02:28:54.908Z,22.72
2022-12-26T02:30:23.919Z,22.85
2022-12-26T02:31:37.136Z,23.01
2022-12-26T02:32:56.926Z,23.08
2022-12-26T02:34:23.161Z,22.60
2022-12-26T02:35:56.555Z,22.68
2022-12-26T02:37:20.765Z,23.02
2022-12-26T02:38:56.531Z,22.73
2022-12-26T02:40:42.899Z,23.34
2022-12-26T02:42:02.756Z,22.89
2022-12-26T02:43:17.419Z,23.11
2022-12-26T02:44:44.231Z,22.81
2022-12-26T02:46:22.630Z,22.76
2022-12-26T02:47:45.516Z,23.00
2022-12-26T02:49:06.671Z,23.22
2022-12-26T02:50:32.841Z,23.03
2022-12-26T02:52:08.307Z,23.06
2022-12-26T02:53:37.368Z,23.33
2022-12-26T02:55:11.034Z,23.00
2022-12-26T02:56:40.433Z,23.14
2022-12-26T02:58:08.746Z,22.70
2022-12-26T02:59:55.716Z,22.96
2022-12-26T03:01:22.672Z,23.51
2022-12-26T03:02:55.734Z,23.57
2022-12-26T03:04:21.246Z,23.28
2022-12-26T03:05:58.693Z,23.24
2022-12-26T03:07:22.477Z,23.83
2022-12-26T03:08:50.819Z,23.34
2022-12-26T03:10:12.734Z,23.41
2022-12-26T03:11:33.546Z,23.82
2022-12-26T03:13:09.819Z,23.60
2022-12-26T03:14:19.514Z,23.29
2022-12-26T03:15:24.420Z,23.44
2022-12-26T03:16:45.116Z,23.63
2022-12-26T03:18:04.254Z,23.59
2022-12-26T03:19:10.116Z,23.73
2022-12-26T03:20:15.785Z,23.74
2022-12-26T03:21:24.341Z,23.72
2022-12-26T03:22:40.979Z,23.95
2022-12-26T03:23:46.746Z,23.56
2022-12-26T03:25:08.059Z,23.85
2022-12-26T03:26:33.802Z,23.89
2022-12-26T03:27:35.726Z,24.03
2022-12-26T03:28:38.066Z,23.51
2022-12-26T03:29:58.173Z,23.74
2022-12-26T03:31:04.463Z,23.66
2022-12-26T03:32:10.446Z,23.89
2022-12-26T03:33:31.053Z,23.97
2022-12-26T03:34:35.176Z,23.98
2022-12-26T03:35:37.097Z,24.12
2022-12-26T03:36:52.373Z,23.78
2022-12-26T03:38:07.871Z,23.99
2022-12-26T03:39:52.896Z,24.07
2022-12-26T03:41:24.100Z,23.85
2022-12-26T03:42:53.461Z,23.33
2022-12-26T03:44:22.493Z,23.67
2022-12-26T03:45:54.933Z,24.18
2022-12-26T03:47:30.790Z,23.77
2022-12-26T03:49:02.598Z,23.74
2022-12-26T03:50:34.735Z,23.87
2022-12-26T03:52:31.636Z,23.48
2022-12-26T03:54:21.876Z,23.80
2022-12-26T03:55:51.403Z,23.45
2022-12-26T03:57:24.495Z,23.59
2022-12-26T03:58:53.521Z,23.89
2022-12-26T04:00:43.218Z,23.78
2022-12-26T04:02:06.117Z,23.92
2022-12-26T04:03:31.997Z,23.96
2022-12-26T04:04:55.988Z,23.63
2022-12-26T04:06:20.101Z,24.22
2022-12-26T04:07:56.444Z,24.04
2022-12-26T04:09:26.621Z,24.21
2022-12-26T04:10:54.284Z,23.99
2022-12-26T04:12:18.183Z,23.81
2022-12-26T04:14:03.354Z,24.56
2022-12-26T04:15:37.419Z,23.92
2022-12-26T04:17:07.960Z,24.08
2022-12-26T04:18:40.382Z,24.17
2022-12-26T04:20:10.364Z,24.01
2022-12-26T04:21:53.214Z,24.41
2022-12-26T04:23:40.436Z,24.26
2022-12-26T04:25:10.479Z,24.17
2022-12-26T04:26:40.320Z,24.25
2022-12-26T04:28:01.399Z,24.62
2022-12-26T04:29:22.379Z,24.33
2022-12-26T04:30:43.056Z,24.09
2022-12-26T04:32:25.956Z,24.46
2022-12-26T04:33:53.983Z,24.67
2022-12-26T04:35:32.800Z,24.36
2022-12-26T04:37:01.200Z,23.92
2022-12-26T04:38:23.759Z,24.45
2022-12-26T04:39:48.668Z,24.54
2022-12-26T04:41:15.594Z,24.51
2022-12-26T04:42:38.177Z,24.73
2022-12-26T04:43:59.357Z,24.73
2022-12-26T04:45:02.619Z,24.57
2022-12-26T04:46:05.750Z,24.58
2022-12-26T04:47:07.993Z,24.47
2022-12-26T04:48:30.567Z,24.73
2022-12-26T04:50:03.961Z,24.59
2022-12-26T04:51:05.956Z,24.64
2022-12-26T04:52:11.467Z,24.68
2022-12-26T04:53:15.184Z,24.56
2022-12-26T04:54:18.117Z,24.75
2022-12-26T04:55:19.997Z,24.49
2022-12-26T04:56:21.918Z,24.73
2022-12-26T04:57:23.738Z,24.68
2022-12-26T04:58:26.728Z,25.06
2022-12-26T04:59:28.832Z,24.84
2022-12-26T05:00:30.658Z,24.78
2022-12-26T05:01:51.373Z,24.68
2022-12-26T05:03:18.235Z,24.78
2022-12-26T05:04:39.651Z,24.93
2022-12-26T05:06:03.077Z,24.82
2022-12-26T05:07:30.188Z,25.15
2022-12-26T05:08:57.310Z,24.73
2022-12-26T05:09:59.201Z,24.65
2022-12-26T05:11:01.044Z,24.80
2022-12-26T05:12:05.559Z,25.01
2022-12-26T05:13:07.377Z,24.92
2022-12-26T05:14:09.307Z,24.76
2022-12-26T05:15:11.663Z,25.01
2022-12-26T05:16:31.813Z,24.93
2022-12-26T05:17:52.095Z,24.82
2022-12-26T05:19:12.614Z,24.78
2022-12-26T05:20:33.215Z,24.84
2022-12-26T05:21:53.709Z,24.55
2022-12-26T05:23:14.385Z,24.81
2022-12-26T05:24:34.632Z,24.85
2022-12-26T05:25:58.175Z,24.95
2022-12-26T05:27:18.535Z,24.81
2022-12-26T05:28:38.956Z,24.56
2022-12-26T05:29:41.096Z,25.10
2022-12-26T05:30:42.965Z,24.74
2022-12-26T05:31:45.136Z,25.25
2022-12-26T05:33:06.584Z,25.13
2022-12-26T05:34:10.527Z,24.86
2022-12-26T05:35:12.473Z,24.77
2022-12-26T05:36:16.408Z,25.13
2022-12-26T05:37:18.338Z,25.10
2022-12-26T05:38:20.496Z,25.30
2022-12-26T05:39:23.252Z,25.03
2022-12-26T05:40:25.096Z,25.32
2022-12-26T05:41:27.008Z,25.53
2022-12-26T05:42:29.055Z,25.27
2022-12-26T05:43:30.964Z,25.20
2022-12-26T05:44:32.877Z,25.33
2022-12-26T05:45:34.686Z,25.42
2022-12-26T05:46:37.239Z,25.26
2022-12-26T05:47:39.116Z,25.18
2022-12-26T05:48:41.298Z,25.06
2022-12-26T05:49:43.179Z,25.20
2022-12-26T05:50:44.984Z,25.27
2022-12-26T05:51:46.867Z,25.06
2022-12-26T05:52:48.673Z,25.43
2022-12-26T05:53:51.746Z,25.28
2022-12-26T05:54:53.824Z,25.28
2022-12-26T05:55:56.309Z,25.40
2022-12-26T05:56:58.338Z,25.06
2022-12-26T05:58:00.986Z,25.44
2022-12-26T05:59:02.822Z,25.36
2022-12-26T06:00:05.239Z,25.37
2022-12-26T06:01:11.300Z,25.57
2022-12-26T06:02:13.307Z,25.11
2022-12-26T06:03:15.374Z,25.31
2022-12-26T06:04:17.337Z,25.26
2022-12-26T06:05:19.791Z,24.97
2022-12-26T06:06:23.163Z,25.46
2022-12-26T06:07:25.010Z,25.23
2022-12-26T06:08:27.016Z,25.45
2022-12-26T06:09:28.946Z,25.18
2022-12-26T06:10:30.710Z,25.54
2022-12-26T06:11:32.735Z,25.63
2022-12-26T06:12:35.553Z,25.61
2022-12-26T06:13:38.417Z,25.66
2022-12-26T06:14:40.218Z,25.42
2022-12-26T06:15:42.232Z,25.58
2022-12-26T06:16:44.107Z,25.58
2022-12-26T06:17:46.105Z,25.22
2022-12-26T06:18:48.811Z,25.42
2022-12-26T06:19:50.651Z,25.11
2022-12-26T06:20:52.762Z,25.14
2022-12-26T06:21:54.631Z,25.50
2022-12-26T06:22:56.493Z,25.13
2022-12-26T06:23:58.441Z,24.87
2022-12-26T06:25:00.499Z,25.02
2022-12-26T06:26:02.331Z,24.97
2022-12-26T06:27:04.170Z,25.09
2022-12-26T06:28:06.054Z,25.02
2022-12-26T06:29:07.903Z,24.96
2022-12-26T06:30:10.185Z,25.03
2022-12-26T06:31:18.413Z,24.79
2022-12-26T06:32:20.284Z,24.84
2022-12-26T06:33:22.388Z,24.64
2022-12-26T06:34:24.399Z,24.85
2022-12-26T06:35:26.344Z,24.97
2022-12-26T06:36:29.246Z,24.79
2022-12-26T06:37:33.498Z,24.40
2022-12-26T06:38:35.938Z,24.75
2022-12-26T06:39:37.914Z,24.63
2022-12-26T06:40:43.225Z,24.55
2022-12-26T06:41:45.525Z,24.71
2022-12-26T06:42:47.397Z,24.50
2022-12-26T06:43:49.890Z,24.48
2022-12-26T06:44:51.882Z,24.53
2022-12-26T06:45:58.854Z,24.69
2022-12-26T06:47:00.795Z,24.60
2022-12-26T06:48:02.761Z,24.34
2022-12-26T06:49:06.611Z,24.59
2022-12-26T06:50:08.890Z,24.38
2022-12-26T06:51:23.539Z,24.20
2022-12-26T06:52:25.412Z,24.34
2022-12-26T06:53:27.180Z,24.16
2022-12-26T06:54:29.223Z,24.36
2022-12-26T06:55:31.122Z,24.26
2022-12-26T06:56:34.398Z,24.02
2022-12-26T06:57:36.267Z,23.81
2022-12-26T06:58:38.697Z,24.16
2022-12-26T06:59:40.524Z,24.03
2022-12-26T07:00:42.365Z,24.05
2022-12-26T07:01:44.377Z,23.99
2022-12-26T07:02:49.786Z,24.03
2022-12-26T07:03:53.306Z,23.84
2022-12-26T07:04:55.128Z,23.99
2022-12-26T07:05:56.969Z,23.73
2022-12-26T07:06:58.908Z,23.58
2022-12-26T07:08:00.753Z,23.75
2022-12-26T07:09:08.554Z,23.53
2022-12-26T07:10:10.699Z,23.69
2022-12-26T07:11:17.605Z,23.82
2022-12-26T07:12:21.858Z,23.67
2022-12-26T07:13:23.785Z,23.80
2022-12-26T07:14:31.889Z,23.79
2022-12-26T07:15:33.689Z,23.75
2022-12-26T07:16:37.556Z,23.75
2022-12-26T07:17:39.639Z,23.68
2022-12-26T07:18:41.831Z,23.72
2022-12-26T07:19:43.592Z,23.86
2022-12-26T07:20:45.625Z,23.72
2022-12-26T07:21:47.521Z,23.64
2022-12-26T07:22:49.285Z,23.59
2022-12-26T07:23:51.898Z,23.72
2022-12-26T07:24:53.701Z,23.68
2022-12-26T07:25:55.469Z,23.75
2022-12-26T07:26:57.324Z,23.53
2022-12-26T07:28:00.522Z,23.91
2022-12-26T07:29:02.303Z,23.55
2022-12-26T07:30:04.391Z,23.74
2022-12-26T07:31:06.316Z,23.81
2022-12-26T07:32:08.165Z,23.51
2022-12-26T07:33:09.962Z,23.74
2022-12-26T07:34:11.842Z,23.85
2022-12-26T07:35:13.712Z,23.72
2022-12-26T07:36:16.413Z,23.55
2022-12-26T07:37:18.224Z,23.86
2022-12-26T07:38:20.041Z,24.04
2022-12-26T07:39:21.918Z,23.52
2022-12-26T07:40:23.695Z,23.86
2022-12-26T07:41:44.087Z,23.68
2022-12-26T07:42:46.593Z,23.64
2022-12-26T07:43:48.353Z,23.78
2022-12-26T07:44:50.135Z,23.93
2022-12-26T07:45:52.166Z,23.77
2022-12-26T07:46:55.378Z,23.67
2022-12-26T07:47:58.123Z,23.68
2022-12-26T07:48:59.929Z,23.75
2022-12-26T07:50:01.783Z,23.70
2022-12-26T07:51:03.646Z,23.81
2022-12-26T07:52:05.538Z,23.94
2022-12-26T07:53:07.339Z,23.77
2022-12-26T07:54:11.671Z,23.79
2022-12-26T07:55:13.959Z,23.98
2022-12-26T07:56:16.352Z,23.83
2022-12-26T07:58:40.065Z,23.70
2022-12-26T07:59:41.832Z,23.82
2022-12-26T08:00:43.648Z,23.93
2022-12-26T08:01:45.611Z,23.86
2022-12-26T08:02:49.672Z,24.06
2022-12-26T08:03:52.499Z,23.81
2022-12-26T08:04:54.315Z,23.60
2022-12-26T08:05:56.776Z,23.91
2022-12-26T08:06:58.640Z,23.94
2022-12-26T08:08:00.413Z,23.80
2022-12-26T08:09:02.342Z,23.91
2022-12-26T08:10:04.390Z,23.79
2022-12-26T08:11:08.505Z,23.78
2022-12-26T08:12:11.100Z,23.83
2022-12-26T08:13:12.908Z,23.98
2022-12-26T08:14:16.866Z,23.80
2022-12-26T08:15:18.810Z,23.76
2022-12-26T08:16:20.989Z,23.98
2022-12-26T08:17:22.815Z,23.98
2022-12-26T08:18:25.128Z,24.05
2022-12-26T08:19:26.894Z,24.24
2022-12-26T08:20:28.694Z,23.80
2022-12-26T08:21:30.900Z,23.95
2022-12-26T08:22:32.671Z,23.87
2022-12-26T08:23:34.481Z,23.98
2022-12-26T08:24:36.421Z,23.92
2022-12-26T08:25:38.339Z,23.71
2022-12-26T08:26:40.172Z,23.84
2022-12-26T08:27:42.043Z,23.83
2022-12-26T08:28:43.995Z,24.20
2022-12-26T08:29:47.574Z,24.05
2022-12-26T08:30:50.174Z,24.18
2022-12-26T08:31:52.045Z,24.16
2022-12-26T08:32:53.882Z,23.84
2022-12-26T08:33:57.665Z,23.82
2022-12-26T08:34:59.572Z,23.96
2022-12-26T08:36:07.511Z,24.14
2022-12-26T08:37:09.320Z,24.11
2022-12-26T08:38:11.124Z,24.11
2022-12-26T08:39:12.880Z,23.97
2022-12-26T08:40:15.609Z,24.13
2022-12-26T08:41:20.696Z,23.74
2022-12-26T08:42:22.541Z,24.03
2022-12-26T08:43:58.449Z,23.60
2022-12-26T08:44:47.011Z,23.90
2022-12-26T08:45:59.640Z,23.75
2022-12-26T08:47:01.698Z,24.05
2022-12-26T08:48:04.361Z,24.00
2022-12-26T08:49:06.237Z,23.98
2022-12-26T08:50:08.337Z,23.90
2022-12-26T08:51:14.206Z,24.03
2022-12-26T08:52:15.963Z,24.18
2022-12-26T08:53:17.746Z,23.93
2022-12-26T08:54:19.634Z,23.86
2022-12-26T08:55:21.442Z,24.17
2022-12-26T08:56:27.390Z,24.29
2022-12-26T08:57:30.134Z,23.93
2022-12-26T08:58:32.464Z,23.91
2022-12-26T08:59:34.308Z,24.04
2022-12-26T09:00:36.120Z,24.03
2022-12-26T09:01:38.873Z,24.01
2022-12-26T09:02:41.002Z,23.84
2022-12-26T09:03:44.506Z,23.99
2022-12-26T09:04:46.283Z,23.95
2022-12-26T09:05:48.276Z,24.18
2022-12-26T09:06:50.115Z,24.00
2022-12-26T09:07:51.895Z,24.10
2022-12-26T09:08:54.160Z,24.13
2022-12-26T09:09:56.073Z,24.26
2022-12-26T09:11:27.679Z,23.88
2022-12-26T09:12:29.487Z,24.37
2022-12-26T09:13:32.289Z,24.02
2022-12-26T09:14:34.204Z,23.94
2022-12-26T09:15:37.572Z,24.15
2022-12-26T09:16:49.242Z,24.04
2022-12-26T09:17:51.738Z,23.85
2022-12-26T09:18:56.264Z,24.29
2022-12-26T09:19:58.071Z,23.88
2022-12-26T09:21:01.377Z,24.25
2022-12-26T09:22:21.552Z,24.12
2022-12-26T09:23:23.340Z,24.06
2022-12-26T09:24:25.109Z,24.36
2022-12-26T09:25:27.056Z,24.13
2022-12-26T09:26:29.528Z,24.32
2022-12-26T09:27:31.325Z,23.99
2022-12-26T09:28:34.396Z,24.58
2022-12-26T09:29:38.310Z,24.28
2022-12-26T09:30:40.112Z,24.36
2022-12-26T09:31:42.303Z,24.07
2022-12-26T09:32:44.113Z,24.28
2022-12-26T09:33:47.302Z,24.18
2022-12-26T09:34:49.594Z,23.80
2022-12-26T09:35:51.374Z,24.02
2022-12-26T09:36:53.186Z,24.19
2022-12-26T09:37:54.945Z,24.21
2022-12-26T09:38:57.949Z,24.02
2022-12-26T09:40:00.195Z,24.25
2022-12-26T09:41:02.655Z,24.14
2022-12-26T09:42:30.310Z,24.49
2022-12-26T09:43:49.776Z,24.26
2022-12-26T09:45:09.014Z,24.13
2022-12-26T09:46:32.924Z,24.48
2022-12-26T09:47:40.470Z,23.81
2022-12-26T09:48:56.648Z,24.32
2022-12-26T09:50:10.351Z,23.92
2022-12-26T09:51:12.329Z,24.06
2022-12-26T09:52:22.316Z,24.15
2022-12-26T09:53:37.231Z,24.35
2022-12-26T09:54:54.369Z,23.99
2022-12-26T09:56:03.767Z,24.00
2022-12-26T09:57:15.039Z,24.16
2022-12-26T09:58:44.316Z,24.19
2022-12-26T10:00:01.441Z,24.24
2022-12-26T10:01:07.335Z,23.83
2022-12-26T10:02:18.454Z,24.21
2022-12-26T10:03:22.133Z,24.04
2022-12-26T10:04:30.251Z,24.16
2022-12-26T10:05:41.779Z,24.36
2022-12-26T10:06:52.497Z,24.28
2022-12-26T10:08:02.332Z,24.07
2022-12-26T10:09:23.183Z,24.12
2022-12-26T10:10:54.954Z,24.26
2022-12-26T10:12:14.989Z,24.13
2022-12-26T10:13:40.247Z,23.73
2022-12-26T10:15:03.559Z,23.99
2022-12-26T10:16:13.985Z,24.12
2022-12-26T10:17:45.040Z,24.22
2022-12-26T10:18:49.356Z,24.23
2022-12-26T10:20:18.103Z,24.11
2022-12-26T10:21:52.450Z,23.99
2022-12-26T10:23:06.193Z,24.03
2022-12-26T10:24:17.346Z,24.19
2022-12-26T10:25:28.808Z,24.32
2022-12-26T10:26:39.778Z,24.27
2022-12-26T10:27:44.095Z,24.15
2022-12-26T10:28:48.256Z,24.43
2022-12-26T10:29:57.815Z,24.62
2022-12-26T10:31:04.424Z,24.14
2022-12-26T10:32:08.277Z,24.16
2022-12-26T10:33:18.437Z,24.19
2022-12-26T10:34:26.279Z,24.42
2022-12-26T10:35:33.665Z,24.38
2022-12-26T10:36:48.648Z,24.06
2022-12-26T10:37:53.737Z,24.29
2022-12-26T10:38:59.179Z,24.29
2022-12-26T10:40:15.594Z,24.31
2022-12-26T10:41:26.995Z,24.19
2022-12-26T10:42:36.676Z,23.96
2022-12-26T10:43:41.102Z,24.28
2022-12-26T10:44:43.309Z,24.11
2022-12-26T10:46:29.284Z,23.96
2022-12-26T10:47:37.846Z,24.19
2022-12-26T10:48:39.856Z,23.97
2022-12-26T10:49:45.031Z,24.35
2022-12-26T10:50:49.189Z,24.23
2022-12-26T10:51:54.281Z,24.16
2022-12-26T10:52:57.670Z,24.15
2022-12-26T10:53:59.541Z,24.21
2022-12-26T10:55:27.283Z,24.23
2022-12-26T10:56:25.699Z,24.19
2022-12-26T10:57:30.754Z,24.11
2022-12-26T10:58:37.752Z,24.17
2022-12-26T10:59:43.953Z,24.34
2022-12-26T11:00:46.155Z,24.11
2022-12-26T11:01:49.169Z,24.16
2022-12-26T11:03:05.679Z,24.23
2022-12-26T11:04:31.206Z,24.38
2022-12-26T11:07:10.043Z,24.33
2022-12-26T11:08:23.437Z,24.39
2022-12-26T11:09:32.299Z,24.21
2022-12-26T11:10:36.041Z,24.09
2022-12-26T11:11:46.805Z,23.94
2022-12-26T11:12:53.203Z,24.21
2022-12-26T11:14:02.533Z,24.29
2022-12-26T11:15:17.326Z,24.50
2022-12-26T11:16:48.869Z,24.45
2022-12-26T11:17:53.352Z,24.26
2022-12-26T11:18:56.225Z,24.24
2022-12-26T11:20:12.245Z,24.17
2022-12-26T11:21:14.241Z,24.19
2022-12-26T11:22:25.476Z,24.37
2022-12-26T11:23:31.761Z,24.36
2022-12-26T11:24:33.560Z,24.17
2022-12-26T11:25:48.936Z,24.41
2022-12-26T11:26:50.767Z,24.26
2022-12-26T11:27:55.556Z,24.20
2022-12-26T11:29:12.670Z,24.23
2022-12-26T11:30:14.527Z,24.18
2022-12-26T11:31:28.202Z,24.51
2022-12-26T11:32:30.119Z,24.23
2022-12-26T11:33:43.297Z,24.54
2022-12-26T11:34:48.139Z,24.26
2022-12-26T11:36:14.317Z,24.16
2022-12-26T11:37:44.729Z,24.46
2022-12-26T11:38:51.379Z,24.37
2022-12-26T11:39:54.629Z,24.31
2022-12-26T11:41:15.108Z,24.20
2022-12-26T11:42:22.306Z,24.46
2022-12-26T11:43:24.714Z,24.07
2022-12-26T11:44:32.248Z,24.16
2022-12-26T11:45:49.407Z,24.58
2022-12-26T11:47:00.264Z,24.32
2022-12-26T11:48:02.339Z,24.21
2022-12-26T11:49:05.238Z,24.50
2022-12-26T11:50:12.070Z,24.28
2022-12-26T11:51:14.986Z,24.26
2022-12-26T11:52:41.607Z,24.43
2022-12-26T11:53:43.433Z,24.22
2022-12-26T11:54:50.822Z,24.44
2022-12-26T11:56:01.652Z,24.28
2022-12-26T11:57:10.046Z,24.49
2022-12-26T11:58:21.714Z,24.56
2022-12-26T11:59:23.899Z,24.19
2022-12-26T12:00:26.417Z,24.48
2022-12-26T12:01:28.268Z,24.61
2022-12-26T12:02:32.220Z,24.48
2022-12-26T12:03:50.327Z,24.48
2022-12-26T12:04:57.041Z,24.52
2022-12-26T12:06:01.768Z,24.41
2022-12-26T12:07:15.125Z,24.33
2022-12-26T12:08:22.721Z,24.37
2022-12-26T12:09:27.421Z,24.63
2022-12-26T12:10:53.350Z,24.52
2022-12-26T12:12:22.793Z,24.24
2022-12-26T12:13:27.231Z,24.21
2022-12-26T12:15:00.315Z,24.35
2022-12-26T12:16:36.200Z,24.36
2022-12-26T12:18:00.931Z,24.41
2022-12-26T12:19:26.945Z,24.32
2022-12-26T12:20:40.705Z,24.60
2022-12-26T12:22:10.207Z,24.31
2022-12-26T12:23:26.699Z,24.04
2022-12-26T12:24:28.433Z,24.45
2022-12-26T12:25:58.240Z,24.54
2022-12-26T12:27:20.203Z,24.43
2022-12-26T12:28:24.496Z,24.19
2022-12-26T12:29:44.717Z,24.49
2022-12-26T12:31:10.293Z,24.53
2022-12-26T12:32:21.991Z,24.58
2022-12-26T12:33:28.812Z,24.40
2022-12-26T12:34:42.785Z,24.54
2022-12-26T12:35:53.492Z,24.39
2022-12-26T12:37:25.325Z,24.52
2022-12-26T12:38:57.009Z,24.44
2022-12-26T12:40:22.185Z,24.51
2022-12-26T12:41:54.935Z,24.28
2022-12-26T12:43:01.374Z,24.17
2022-12-26T12:44:30.267Z,24.69
2022-12-26T12:45:35.369Z,24.47
2022-12-26T12:47:11.209Z,24.20
2022-12-26T12:48:40.309Z,24.33
2022-12-26T12:49:58.909Z,24.61
2022-12-26T12:51:12.383Z,24.39
2022-12-26T12:52:46.733Z,24.43
2022-12-26T12:54:10.216Z,24.58
2022-12-26T12:55:20.981Z,24.67
2022-12-26T12:56:52.197Z,24.64
2022-12-26T12:58:23.391Z,24.61
2022-12-26T12:59:47.096Z,24.54
2022-12-26T13:01:13.837Z,24.29
2022-12-26T13:02:32.916Z,24.64
2022-12-26T13:03:45.468Z,24.39
2022-12-26T13:04:53.916Z,24.65
2022-12-26T13:06:04.048Z,24.48
2022-12-26T13:07:17.530Z,24.34
2022-12-26T13:08:24.447Z,24.54
2022-12-26T13:09:35.112Z,24.88
2022-12-26T13:10:46.424Z,24.66
2022-12-26T13:12:10.389Z,24.82
2022-12-26T13:13:27.849Z,24.58
2022-12-26T13:14:41.328Z,24.68
2022-12-26T13:15:47.036Z,24.72
2022-12-26T13:16:55.924Z,24.44
2022-12-26T13:18:13.199Z,24.40
2022-12-26T13:19:27.588Z,24.66
2022-12-26T13:20:40.903Z,24.63
2022-12-26T13:21:44.140Z,24.47
2022-12-26T13:23:12.748Z,24.82
2022-12-26T13:24:24.819Z,24.66
2022-12-26T13:25:32.154Z,24.51
2022-12-26T13:26:47.534Z,24.70
2022-12-26T13:27:53.612Z,24.79
2022-12-26T13:29:04.748Z,24.50
2022-12-26T13:30:15.851Z,24.68
2022-12-26T13:31:19.036Z,24.60
2022-12-26T13:32:22.785Z,24.71
2022-12-26T13:33:24.713Z,24.59
2022-12-26T13:34:26.845Z,24.90
2022-12-26T13:35:50.544Z,24.90
2022-12-26T13:36:55.786Z,24.60
2022-12-26T13:37:58.175Z,24.67
2022-12-26T13:39:01.411Z,24.38
2022-12-26T13:40:26.917Z,24.91
2022-12-26T13:41:49.788Z,24.86
2022-12-26T13:43:15.189Z,24.69
2022-12-26T13:44:19.901Z,24.83
2022-12-26T13:45:41.929Z,24.51
2022-12-26T13:46:46.493Z,24.95
2022-12-26T13:47:48.383Z,24.84
2022-12-26T13:48:58.133Z,24.82
2022-12-26T13:50:47.214Z,24.52
2022-12-26T13:51:54.117Z,24.79
2022-12-26T13:52:56.441Z,24.47
2022-12-26T13:54:09.343Z,24.56
2022-12-26T13:55:14.077Z,24.58
2022-12-26T13:56:18.838Z,25.06
2022-12-26T13:57:41.164Z,24.81
2022-12-26T13:59:01.249Z,24.94
2022-12-26T14:00:15.246Z,24.97
2022-12-26T14:01:33.319Z,24.62
2022-12-26T14:03:19.304Z,24.65
2022-12-26T14:05:10.382Z,24.93
2022-12-26T14:06:27.265Z,24.79
2022-12-26T14:07:40.354Z,24.64
2022-12-26T14:08:42.169Z,24.89
2022-12-26T14:10:12.159Z,24.98
2022-12-26T14:11:38.569Z,25.00
2022-12-26T14:13:27.817Z,25.05
2022-12-26T14:15:02.936Z,25.00
2022-12-26T14:16:18.840Z,24.79
2022-12-26T14:17:49.847Z,24.97
2022-12-26T14:19:14.141Z,24.96
2022-12-26T14:20:39.520Z,24.98
2022-12-26T14:22:18.542Z,25.20
2022-12-26T14:23:46.335Z,24.96
2022-12-26T14:25:10.143Z,24.79
2022-12-26T14:26:36.615Z,24.95
2022-12-26T14:27:49.593Z,25.15
2022-12-26T14:29:00.238Z,25.46
2022-12-26T14:30:34.813Z,25.04
2022-12-26T14:32:02.564Z,24.72
2022-12-26T14:33:23.669Z,24.94
2022-12-26T14:34:39.256Z,25.11
2022-12-26T14:36:01.231Z,25.35
2022-12-26T14:37:13.162Z,25.27
2022-12-26T14:38:17.687Z,25.58
2022-12-26T14:39:31.559Z,25.54
2022-12-26T14:40:36.500Z,25.33
2022-12-26T14:42:24.732Z,25.49
2022-12-26T14:43:34.349Z,25.56
2022-12-26T14:44:39.000Z,25.64
2022-12-26T14:45:43.574Z,25.78
2022-12-26T14:46:51.621Z,25.46
2022-12-26T14:47:53.741Z,25.61
2022-12-26T14:48:59.185Z,25.60
2022-12-26T14:50:32.872Z,25.50
2022-12-26T14:51:37.687Z,25.36
2022-12-26T14:52:40.918Z,25.39
2022-12-26T14:53:47.018Z,25.72
2022-12-26T14:54:51.485Z,25.49
2022-12-26T14:56:03.916Z,25.43
2022-12-26T14:57:45.771Z,25.44
2022-12-26T14:58:49.416Z,25.63
2022-12-26T15:00:23.751Z,25.40
2022-12-26T15:01:25.529Z,25.27
2022-12-26T15:02:34.347Z,25.44
2022-12-26T15:03:41.171Z,25.44
2022-12-26T15:05:10.791Z,25.46
2022-12-26T15:06:19.362Z,25.32
2022-12-26T15:07:23.967Z,25.26
2022-12-26T15:08:40.591Z,25.45
2022-12-26T15:10:18.994Z,25.27
2022-12-26T15:11:59.492Z,25.19
2022-12-26T15:13:24.413Z,24.96